Details From MKJS - Montego Bay Sangster Intl
To TNCM - St Maarten - Princess Juliana Intl
Flight Number -
Tags Generated
Created
Modified
Stats Distance 845 nm / 1,565 km
Max Altitude 0 ft / 0 m
Waypoints 5
Social Downloads 4
Likes 0
Share VATSIM

Download

Looking for another format? Having issues loading an existing format? Contact us
Advertisement - Login to hide

Notes

Generated

Route

MKJS MAROT MELLA PJM02 TNCM

ID Type Via Altitude Latitude Longitude Leg Dist Tot Dist Heading (true) Name
O MKJS APT - 0 ft / 0 m 18.49873˚ -77.92482˚ - 0 nm - -
MAROT FIX - 0 ft / 0 m 18.49517˚ -72.91222˚ 285 nm 285 nm 89° / 91° -
MELLA FIX - 0 ft / 0 m 18.20000˚ -68.00000˚ 280 nm 566 nm 93° / 94° -
PJM02 FIX - 0 ft / 0 m 18.03461˚ -63.15309˚ 276 nm 842 nm 91° / 93° -
O TNCM APT - 0 ft / 0 m 18.03937˚ -63.11961˚ 1 nm 844 nm 81° / 82° -

Altitude Profile

Advertisement - Login to hide

Weather


0- 5 10 15 20 25 30 35+ Temperature / ° C

Clouds and Precipitation
Forecast for 2017-12-15 12:00 UTC. Updated 2 hours ago

Ground ~20,000 ft ~40,000 ft Winds

MKJS

Details ICAO MKJS (MBJ)
Name Sangster Intl
Region Jamaica
Timezone America/Jamaica (UTC-5.0)
Stats Elevation 6 ft / 2 m (AMSL)
Location 18.503549° -77.913698°
Runways 1
Magnetic Variation 6.956° W

METAR

MKJS 151000Z 18005KT 9999 FEW022 23/21 Q1014

Decode

TAF

TAF MKJS 150515Z 1506/1606 VRB03KT 9999 FEW022 BECMG 1514/1516 08015KT BECMG 1601/1603 VRB03KT

Decode

Departure Runways

ID Width Length Bearing (true) Bearing (mag) Surface Threshold Offset Overrun Length
07 161 ft / 49 m 8,495 ft / 2,589 m 65.37° 72.33° Asphalt 220 ft / 67 m 312 ft / 95 m
25 161 ft / 49 m 8,495 ft / 2,589 m 245.37° 252.33° Asphalt 577 ft / 176 m 200 ft / 61 m

TNCM

Details ICAO TNCM (SXM)
Name St Maarten - Princess Juliana Intl
Region Caribbean Netherlands, Aruba, Curaçao, Sint Maarten
Timezone Unknown (UTC+0.0)
Stats Elevation 12 ft / 4 m (AMSL)
Location 18.040889° -63.108974°
Runways 1
Magnetic Variation 14.325° W

METAR

TNCM 151000Z 07010KT 040V100 9999 FEW019 26/20 Q1017 A3005 NOSIG

Decode

TAF

TAF TNCM 150529Z 1506/1606 07008KT P6SM SCT020 FM151200 08017KT P6SM VCSH FEW020 SCT040 FM152200 07012KT P6SM FEW022

Decode

Destination Runways

ID Width Length Bearing (true) Bearing (mag) Surface Threshold Offset Overrun Length
10 148 ft / 45 m 7,464 ft / 2,275 m 81.43° 95.76° Asphalt 0 ft / 0 m 151 ft / 46 m
28 148 ft / 45 m 7,464 ft / 2,275 m 261.44° 275.77° Asphalt 397 ft / 121 m 0 ft / 0 m

Popular Alternatives